Time;durP1;ratioP1;P1;durP2;ratioP2;P2;SDS_P1;SDS_P2;PMS_P1;PMS_P2;Temp;Humidity;BMP_temperature;BMP_pressure;BME280_temperature;BME280_humidity;BME280_pressure;Samples;Min_cycle;Max_cycle;Signal;HPM_P1;HPM_P2
2022/09/18 00:01:52;;;;;;;;;10.50;8.50;;;;;27.11;100.00;101347.25;5096679;27;51164;-59
2022/09/18 00:04:36;;;;;;;;;9.00;5.50;;;;;27.08;100.00;101342.03;5104336;27;51132;-60
2022/09/18 00:07:20;;;;;;;;;13.25;7.50;;;;;27.11;100.00;101336.34;5087953;27;51915;-60
2022/09/18 00:10:05;;;;;;;;;15.00;10.00;;;;;27.12;100.00;101344.44;5083509;27;51457;-60
2022/09/18 00:12:50;;;;;;;;;14.00;9.00;;;;;27.13;100.00;101332.56;5103439;27;51230;-60
2022/09/18 00:15:36;;;;;;;;;11.75;8.00;;;;;27.12;100.00;101324.44;5103826;27;51205;-60
2022/09/18 00:18:20;;;;;;;;;6.00;5.50;;;;;27.12;100.00;101324.44;5104383;27;51143;-60
2022/09/18 00:21:06;;;;;;;;;10.25;6.75;;;;;27.09;100.00;101320.06;5086366;27;51571;-60
2022/09/18 00:23:54;;;;;;;;;8.25;8.00;;;;;27.04;100.00;101306.69;5088682;27;51233;-60
2022/09/18 00:26:39;;;;;;;;;7.50;5.25;;;;;27.04;100.00;101312.16;5083440;27;51134;-60
2022/09/18 00:29:24;;;;;;;;;11.75;9.25;;;;;26.97;100.00;101309.91;5099386;27;51328;-60
2022/09/18 00:32:08;;;;;;;;;8.00;8.00;;;;;27.05;100.00;101318.50;5090503;27;51116;-60
2022/09/18 00:34:53;;;;;;;;;14.50;7.00;;;;;27.05;100.00;101304.84;5103957;27;51083;-60
2022/09/18 00:37:37;;;;;;;;;10.00;8.00;;;;;27.07;100.00;101302.88;5103858;27;51435;-60
2022/09/18 00:40:22;;;;;;;;;11.75;8.00;;;;;27.06;100.00;101306.59;5103632;27;51120;-61
2022/09/18 00:43:26;;;;;;;;;13.00;10.00;;;;;27.03;100.00;101291.28;5104089;27;51084;-60
2022/09/18 00:46:19;;;;;;;;;13.00;7.25;;;;;27.05;100.00;101300.28;5103628;27;51341;-60
2022/09/18 00:49:17;;;;;;;;;13.00;6.50;;;;;27.03;100.00;101285.81;5088235;27;51278;-60
2022/09/18 00:52:02;;;;;;;;;13.00;8.50;;;;;27.11;100.00;101295.38;5091067;27;51556;-60
2022/09/18 00:54:50;;;;;;;;;14.50;10.50;;;;;27.12;100.00;101291.66;5097283;27;51189;-60
2022/09/18 00:57:39;;;;;;;;;10.50;8.00;;;;;27.10;100.00;101296.34;5088153;27;51257;-60
2022/09/18 01:00:24;;;;;;;;;9.25;8.25;;;;;27.10;100.00;101279.94;5103609;27;52016;-60
2022/09/18 01:03:09;;;;;;;;;11.75;7.50;;;;;27.06;100.00;101280.19;5103174;27;51334;-60
2022/09/18 01:05:56;;;;;;;;;8.75;8.25;;;;;27.10;100.00;101279.94;5084809;27;51234;-60
2022/09/18 01:09:01;;;;;;;;;13.25;9.75;;;;;27.12;100.00;101276.16;5102744;27;51097;-60
2022/09/18 01:11:51;;;;;;;;;10.50;8.50;;;;;27.06;100.00;101260.16;5087676;27;51126;-60
2022/09/18 01:15:11;;;;;;;;;10.25;8.25;;;;;27.12;100.00;101278.00;5090357;27;51179;-60
2022/09/18 01:18:06;;;;;;;;;10.00;8.00;;;;;27.14;100.00;101270.59;5089193;27;51489;-60
2022/09/18 01:20:54;;;;;;;;;9.25;8.50;;;;;27.16;100.00;101280.44;5084135;27;51113;-60
2022/09/18 01:24:15;;;;;;;;;13.25;10.00;;;;;27.17;100.00;101275.88;5090475;27;51254;-60
2022/09/18 01:27:06;;;;;;;;;14.25;8.50;;;;;27.16;100.00;101268.66;5102625;27;51158;-60
2022/09/18 01:29:54;;;;;;;;;11.00;8.00;;;;;27.18;100.00;101269.44;5088727;27;51099;-60
2022/09/18 01:33:06;;;;;;;;;10.25;8.25;;;;;27.17;100.00;101263.06;5082971;27;51053;-60
2022/09/18 01:35:52;;;;;;;;;10.25;8.25;;;;;27.18;100.00;101273.03;5097178;27;51124;-60
2022/09/18 01:39:06;;;;;;;;;11.75;8.00;;;;;27.16;100.00;101261.31;5083833;27;51554;-60
2022/09/18 01:41:51;;;;;;;;;10.00;7.00;;;;;27.14;100.00;101265.13;5098599;27;51031;-60
2022/09/18 01:44:37;;;;;;;;;8.50;8.00;;;;;27.09;100.00;101259.13;5090902;27;51255;-59
2022/09/18 01:47:26;;;;;;;;;8.25;6.50;;;;;27.14;100.00;101263.28;5069784;27;51103;-60
2022/09/18 01:50:12;;;;;;;;;10.25;7.50;;;;;27.13;100.00;101266.09;5081670;27;50987;-60
2022/09/18 01:53:02;;;;;;;;;7.25;7.25;;;;;27.13;100.00;101257.91;5081699;27;51168;-59
2022/09/18 01:55:55;;;;;;;;;11.50;8.00;;;;;27.08;100.00;101254.63;5086465;27;51503;-60
2022/09/18 01:58:40;;;;;;;;;8.75;7.50;;;;;27.08;100.00;101258.22;5083541;27;51218;-60
2022/09/18 02:01:28;;;;;;;;;10.00;7.50;;;;;27.10;100.00;101247.19;5093022;27;51116;-60
2022/09/18 02:04:21;;;;;;;;;12.25;9.75;;;;;27.09;100.00;101248.19;5098914;27;51489;-60
2022/09/18 02:07:13;;;;;;;;;11.75;10.75;;;;;27.07;100.00;101245.53;5099503;27;51148;-60
2022/09/18 02:09:58;;;;;;;;;11.00;8.50;;;;;27.07;100.00;101240.06;5089480;27;51112;-60
2022/09/18 02:12:44;;;;;;;;;12.50;9.75;;;;;27.09;100.00;101243.59;5102468;27;51179;-60
2022/09/18 02:15:31;;;;;;;;;9.25;7.50;;;;;27.03;100.00;101235.81;5089398;27;51094;-60
2022/09/18 02:18:26;;;;;;;;;8.25;7.75;;;;;27.12;100.00;101246.13;5098730;27;51057;-60
2022/09/18 02:21:16;;;;;;;;;10.00;7.00;;;;;27.13;100.00;101242.41;5079684;27;51089;-60
2022/09/18 02:24:05;;;;;;;;;10.00;9.00;;;;;27.12;100.00;101239.78;5094119;27;51235;-61
2022/09/18 02:26:52;;;;;;;;;12.50;8.50;;;;;27.06;100.00;101236.47;5092354;27;51059;-60
2022/09/18 02:29:37;;;;;;;;;10.75;8.75;;;;;27.09;100.00;101237.25;5101055;27;51983;-60
2022/09/18 02:32:21;;;;;;;;;11.25;9.25;;;;;27.03;100.00;101227.63;5088732;27;51201;-60
2022/09/18 02:35:07;;;;;;;;;11.00;9.00;;;;;26.99;100.00;101236.97;5080746;27;51101;-60
2022/09/18 02:38:16;;;;;;;;;10.00;9.00;;;;;27.02;100.00;101244.97;5099179;27;51044;-60
2022/09/18 02:41:31;;;;;;;;;10.50;8.25;;;;;27.01;100.00;101248.69;5085142;27;51426;-60
2022/09/18 02:44:32;;;;;;;;;10.25;6.75;;;;;27.06;100.00;101249.25;5080575;27;51142;-60
2022/09/18 02:47:32;;;;;;;;;10.75;8.00;;;;;27.06;100.00;101246.50;5083837;27;51272;-60
2022/09/18 02:50:52;;;;;;;;;12.00;8.00;;;;;27.05;100.00;101252.94;5080411;27;51050;-60
2022/09/18 02:53:45;;;;;;;;;8.25;7.50;;;;;27.05;100.00;101242.91;5076504;27;51029;-59
2022/09/18 02:56:29;;;;;;;;;12.00;8.00;;;;;27.05;100.00;101250.22;5089933;27;51116;-60
2022/09/18 02:59:17;;;;;;;;;8.75;6.25;;;;;27.04;100.00;101249.34;5100946;27;51292;-60
2022/09/18 03:02:02;;;;;;;;;15.25;8.50;;;;;27.07;100.00;101248.25;5100520;27;51170;-60
2022/09/18 03:04:48;;;;;;;;;12.50;8.00;;;;;27.06;100.00;101252.88;5084823;27;51014;-60
2022/09/18 03:07:32;;;;;;;;;10.00;7.00;;;;;27.07;100.00;101256.47;5080261;27;51394;-60
2022/09/18 03:10:16;;;;;;;;;17.00;9.25;;;;;27.07;100.00;101261.91;5079898;27;51224;-60
2022/09/18 03:13:01;;;;;;;;;8.25;7.00;;;;;27.06;100.00;101263.78;5080695;27;51369;-60
2022/09/18 03:15:45;;;;;;;;;13.50;9.75;;;;;27.07;100.00;101261.91;5088649;27;51122;-60
2022/09/18 03:18:30;;;;;;;;;10.25;6.75;;;;;27.06;100.00;101268.34;5092553;27;51119;-60
2022/09/18 03:21:14;;;;;;;;;10.75;7.25;;;;;27.06;100.00;101273.81;5086698;27;51241;-60
2022/09/18 03:23:59;;;;;;;;;11.00;9.50;;;;;27.08;100.00;101276.47;5088684;27;51338;-60
2022/09/18 03:26:43;;;;;;;;;11.75;9.25;;;;;27.11;100.00;101281.72;5079807;27;51094;-60
2022/09/18 03:29:28;;;;;;;;;14.00;10.00;;;;;27.05;100.00;101270.22;5082577;27;51181;-60
2022/09/18 03:32:12;;;;;;;;;18.00;10.00;;;;;27.12;100.00;101278.91;5095072;27;51480;-60
2022/09/18 03:34:56;;;;;;;;;13.00;8.00;;;;;27.09;100.00;101272.75;5092908;27;51229;-61
2022/09/18 03:37:41;;;;;;;;;14.00;9.00;;;;;27.14;100.00;101270.59;5089965;27;51237;-60
2022/09/18 03:40:25;;;;;;;;;11.75;8.25;;;;;27.10;100.00;101269.94;5079555;27;51193;-59
2022/09/18 03:43:31;;;;;;;;;17.33;11.67;;;;;27.14;100.00;101271.50;4273465;32;1759704;-59
2022/09/18 03:46:22;;;;;;;;;11.00;8.50;;;;;27.15;100.00;101280.53;5077321;28;51230;-59
2022/09/18 03:49:07;;;;;;;;;7.25;7.25;;;;;27.06;100.00;101274.72;5061541;28;51147;-59
2022/09/18 03:51:52;;;;;;;;;13.50;10.00;;;;;27.09;100.00;101286.41;5061843;28;51190;-60
2022/09/18 03:54:36;;;;;;;;;14.50;11.50;;;;;27.06;100.00;101288.38;5077097;28;51380;-59
2022/09/18 03:57:21;;;;;;;;;13.75;11.50;;;;;27.02;100.00;101292.25;5076756;28;51203;-59
2022/09/18 04:00:06;;;;;;;;;16.75;10.25;;;;;27.06;100.00;101302.03;5077258;28;51150;-60
2022/09/18 04:02:50;;;;;;;;;10.50;9.00;;;;;27.04;100.00;101298.50;5076723;28;51176;-60
2022/09/18 04:05:35;;;;;;;;;12.00;10.50;;;;;27.11;100.00;101306.28;5076852;28;51546;-60
2022/09/18 04:08:19;;;;;;;;;6.50;6.50;;;;;27.10;100.00;101299.06;5076526;28;51100;-59
2022/09/18 04:11:04;;;;;;;;;11.75;9.00;;;;;27.09;100.00;101306.41;5077381;28;51102;-60
2022/09/18 04:13:49;;;;;;;;;14.00;11.00;;;;;27.05;100.00;101311.19;5076749;28;51558;-60
2022/09/18 04:16:34;;;;;;;;;11.50;9.00;;;;;27.05;100.00;101310.28;5076670;28;51259;-60
2022/09/18 04:19:18;;;;;;;;;16.50;10.00;;;;;27.01;100.00;101315.09;5076687;28;51430;-60
2022/09/18 04:22:03;;;;;;;;;13.75;11.00;;;;;27.01;100.00;101322.41;5076411;28;51197;-60
2022/09/18 04:24:49;;;;;;;;;14.75;10.50;;;;;27.03;100.00;101324.06;5061490;28;51195;-60
2022/09/18 04:27:35;;;;;;;;;13.00;10.00;;;;;27.04;100.00;101317.63;5076337;28;51199;-61
2022/09/18 04:30:19;;;;;;;;;12.75;7.75;;;;;27.09;100.00;101321.94;5076569;28;51164;-60
2022/09/18 04:33:04;;;;;;;;;13.25;10.75;;;;;27.12;100.00;101327.16;5074539;28;51167;-60
2022/09/18 04:35:48;;;;;;;;;10.50;9.25;;;;;27.14;100.00;101328.84;5060625;28;51217;-60
2022/09/18 04:38:32;;;;;;;;;15.25;10.50;;;;;27.15;100.00;101324.25;5076119;28;51535;-59
2022/09/18 04:41:17;;;;;;;;;11.75;11.00;;;;;27.15;100.00;101322.38;5077295;27;51113;-60
2022/09/18 04:44:02;;;;;;;;;11.25;8.25;;;;;27.16;100.00;101334.22;5096746;27;51100;-60
2022/09/18 04:46:46;;;;;;;;;12.00;8.00;;;;;27.15;100.00;101324.25;5096317;27;51192;-60
2022/09/18 04:49:31;;;;;;;;;16.75;11.00;;;;;27.18;100.00;101335.00;5096887;27;51152;-60
2022/09/18 04:52:18;;;;;;;;;10.00;10.00;;;;;27.19;100.00;101334.00;5096532;27;51222;-59
2022/09/18 04:55:02;;;;;;;;;12.25;10.00;;;;;27.18;100.00;101356.84;5065801;27;51121;-60
2022/09/18 04:57:47;;;;;;;;;12.25;10.75;;;;;27.11;100.00;101361.81;5066887;27;51092;-60
2022/09/18 05:00:34;;;;;;;;;9.75;7.25;;;;;27.00;100.00;101358.88;5083150;27;51058;-60
2022/09/18 05:03:21;;;;;;;;;13.00;10.75;;;;;26.86;100.00;101367.97;5082478;27;51205;-60
2022/09/18 05:06:06;;;;;;;;;18.50;11.00;;;;;26.74;100.00;101364.97;5082354;27;51136;-60
2022/09/18 05:08:50;;;;;;;;;14.50;11.25;;;;;26.68;100.00;101373.53;5082566;27;51365;-59
2022/09/18 05:11:35;;;;;;;;;12.00;9.00;;;;;26.60;100.00;101373.13;5082478;27;51251;-60
2022/09/18 05:14:19;;;;;;;;;12.00;8.50;;;;;26.56;100.00;101375.19;5067275;27;51160;-60
2022/09/18 05:17:04;;;;;;;;;11.50;8.25;;;;;26.56;100.00;101374.31;5066505;27;51120;-60
2022/09/18 05:19:48;;;;;;;;;12.25;7.50;;;;;26.50;100.00;101371.94;5082448;27;51115;-60
2022/09/18 05:22:33;;;;;;;;;13.75;8.75;;;;;26.40;100.00;101377.09;5066595;27;51177;-60
2022/09/18 05:25:19;;;;;;;;;14.50;12.25;;;;;26.23;100.00;101373.53;5082204;27;51200;-60
2022/09/18 05:28:04;;;;;;;;;14.75;12.00;;;;;26.11;100.00;101372.41;5081916;27;51164;-60
2022/09/18 05:30:49;;;;;;;;;21.00;13.50;;;;;26.06;100.00;101377.22;5082162;27;51065;-60
2022/09/18 05:33:35;;;;;;;;;19.00;12.25;;;;;25.97;100.00;101384.09;5082195;27;51358;-60
2022/09/18 05:36:19;;;;;;;;;14.75;13.50;;;;;25.99;100.00;101384.00;5081281;27;51233;-60
2022/09/18 05:39:04;;;;;;;;;17.50;12.25;;;;;25.93;100.00;101370.72;5060851;27;51167;-60
2022/09/18 05:41:51;;;;;;;;;19.50;15.00;;;;;25.98;100.00;101396.75;5052661;27;51255;-60
2022/09/18 05:44:36;;;;;;;;;18.75;15.00;;;;;25.97;100.00;101405.91;5081651;27;51668;-60
2022/09/18 05:47:20;;;;;;;;;14.00;10.00;;;;;25.89;100.00;101397.28;5081620;27;51129;-60
2022/09/18 05:50:05;;;;;;;;;17.50;10.75;;;;;26.09;100.00;101423.44;5082054;27;51077;-60
2022/09/18 05:53:09;;;;;;;;;13.00;10.75;;;;;26.11;100.00;101424.22;5081386;27;51215;-60
2022/09/18 05:55:54;;;;;;;;;16.50;10.25;;;;;26.16;100.00;101429.41;5081424;27;51260;-60
2022/09/18 05:58:38;;;;;;;;;11.25;8.00;;;;;26.22;100.00;101425.44;5081588;27;51466;-60
2022/09/18 06:01:23;;;;;;;;;12.50;9.75;;;;;26.25;100.00;101419.78;5081298;27;51113;-59
2022/09/18 06:04:08;;;;;;;;;17.50;10.00;;;;;26.30;100.00;101424.00;5081641;27;51413;-60
2022/09/18 06:06:53;;;;;;;;;12.75;10.00;;;;;26.37;100.00;101435.44;5080634;27;51166;-60
2022/09/18 06:09:38;;;;;;;;;14.75;11.50;;;;;26.44;100.00;101442.31;5081374;27;51105;-60
2022/09/18 06:12:23;;;;;;;;;16.00;12.25;;;;;26.51;100.00;101434.59;5081226;27;51231;-60
2022/09/18 06:15:09;;;;;;;;;13.00;10.75;;;;;26.57;100.00;101436.09;5081431;27;51394;-60
2022/09/18 06:17:54;;;;;;;;;13.00;9.00;;;;;26.63;100.00;101438.47;5080941;27;51552;-60
2022/09/18 06:20:38;;;;;;;;;17.00;10.75;;;;;26.68;100.00;101452.69;5081246;27;51153;-60
2022/09/18 06:23:24;;;;;;;;;15.50;12.25;;;;;26.72;100.00;101454.28;5081140;27;51074;-60
2022/09/18 06:26:10;;;;;;;;;15.00;13.00;;;;;26.75;100.00;101453.19;5078439;27;51155;-59
2022/09/18 06:28:55;;;;;;;;;13.00;10.25;;;;;26.76;100.00;101450.41;5081437;27;51057;-60
2022/09/18 06:31:39;;;;;;;;;14.00;11.50;;;;;26.78;100.00;101450.34;5076938;27;51237;-60
2022/09/18 06:34:23;;;;;;;;;12.50;11.50;;;;;26.85;100.00;101459.03;5076017;27;51490;-60
2022/09/18 06:37:09;;;;;;;;;14.50;10.75;;;;;26.90;100.00;101462.34;5079133;27;51113;-60
2022/09/18 06:39:53;;;;;;;;;13.75;11.75;;;;;27.00;100.00;101469.00;5077242;27;51106;-60
2022/09/18 06:42:38;;;;;;;;;14.00;13.00;;;;;27.10;100.00;101452.94;5078675;27;51508;-60
2022/09/18 06:45:23;;;;;;;;;15.25;9.75;;;;;27.21;100.00;101465.91;5079223;27;51035;-60
2022/09/18 06:48:08;;;;;;;;;11.00;8.75;;;;;27.29;100.00;101474.53;5079289;27;51450;-60
2022/09/18 06:50:53;;;;;;;;;15.25;10.50;;;;;27.34;100.00;101477.81;5079796;27;51467;-59
2022/09/18 06:53:38;;;;;;;;;15.00;12.25;;;;;27.39;100.00;101474.78;5078221;27;51047;-60
2022/09/18 06:56:22;;;;;;;;;14.00;9.75;;;;;27.45;100.00;101487.22;5079100;27;51263;-59
2022/09/18 06:59:07;;;;;;;;;17.25;10.50;;;;;27.47;100.00;101490.75;5079614;27;51526;-60
2022/09/18 07:01:51;;;;;;;;;13.00;8.50;;;;;27.51;100.00;101498.66;5078599;27;51200;-60
2022/09/18 07:04:35;;;;;;;;;17.00;10.25;;;;;27.55;100.00;101496.59;5067953;27;51085;-60
2022/09/18 07:07:20;;;;;;;;;11.75;8.50;;;;;27.60;100.00;101486.25;5079479;27;51094;-60
2022/09/18 07:10:05;;;;;;;;;14.00;11.25;;;;;27.83;100.00;101498.44;5079263;27;51148;-60
2022/09/18 07:12:55;;;;;;;;;11.00;9.25;;;;;28.12;100.00;101503.88;5078162;27;51406;-60
2022/09/18 07:15:40;;;;;;;;;8.00;8.00;;;;;28.44;100.00;101513.69;5079733;27;51097;-56
2022/09/18 07:18:24;;;;;;;;;12.25;9.50;;;;;28.80;100.00;101506.69;5074850;27;51025;-54
2022/09/18 07:21:09;;;;;;;;;12.75;10.00;;;;;29.14;100.00;101501.59;5079112;27;51522;-57
2022/09/18 07:23:54;;;;;;;;;12.75;10.50;;;;;29.49;100.00;101497.38;5078775;27;51543;-53
2022/09/18 07:26:38;;;;;;;;;14.25;12.00;;;;;29.38;100.00;101493.53;5079213;27;51167;-55
2022/09/18 07:29:23;;;;;;;;;17.50;10.75;;;;;29.15;100.00;101500.63;5074886;27;51376;-54
2022/09/18 07:32:07;;;;;;;;;14.50;11.00;;;;;29.03;100.00;101510.59;5074868;27;51243;-56
2022/09/18 07:34:51;;;;;;;;;18.50;11.50;;;;;28.99;100.00;101522.75;5073076;27;51199;-55
2022/09/18 07:37:37;;;;;;;;;14.00;11.25;;;;;28.97;100.00;101518.38;5079470;28;51156;-57
2022/09/18 07:40:22;;;;;;;;;15.00;12.50;;;;;28.87;100.00;101520.84;5062919;28;51153;-56
2022/09/18 07:43:09;;;;;;;;;16.50;12.25;;;;;28.71;100.00;101521.00;5063413;28;51187;-55
2022/09/18 07:45:53;;;;;;;;;14.75;11.75;;;;;28.64;100.00;101527.88;5079901;28;51290;-58
2022/09/18 07:48:38;;;;;;;;;17.75;13.75;;;;;28.65;100.00;101527.75;5079786;28;51074;-54
2022/09/18 07:51:22;;;;;;;;;16.00;12.50;;;;;28.80;100.00;101541.44;5072489;28;51105;-55
2022/09/18 07:54:07;;;;;;;;;14.00;11.25;;;;;28.99;100.00;101538.31;5068552;28;50947;-56
2022/09/18 07:56:52;;;;;;;;;13.00;10.25;;;;;29.66;100.00;101534.53;5080024;28;51495;-56
2022/09/18 07:59:36;;;;;;;;;14.00;10.75;;;;;30.61;100.00;101514.78;5077847;28;51142;-57
2022/09/18 08:02:20;;;;;;;;;11.00;8.25;;;;;31.34;100.00;101515.53;5061694;28;51414;-55
2022/09/18 08:05:06;;;;;;;;;14.00;12.25;;;;;32.61;100.00;101526.34;5075076;28;51304;-58
2022/09/18 08:07:50;;;;;;;;;17.75;11.50;;;;;34.36;100.00;101508.19;5079592;28;51127;-56
2022/09/18 08:10:36;;;;;;;;;14.25;10.50;;;;;35.25;100.00;101505.44;5074581;28;51075;-56
2022/09/18 08:13:21;;;;;;;;;14.25;12.00;;;;;35.30;100.00;101492.00;5078665;28;51719;-57
2022/09/18 08:16:06;;;;;;;;;12.75;10.25;;;;;35.16;100.00;101494.25;5079659;28;51144;-57
2022/09/18 08:18:50;;;;;;;;;20.50;15.75;;;;;35.13;100.00;101493.66;5079835;28;51211;-56
2022/09/18 08:21:35;;;;;;;;;12.75;10.75;;;;;34.76;100.00;101493.38;5064923;28;51392;-57
2022/09/18 08:24:19;;;;;;;;;14.75;12.75;;;;;34.54;100.00;101490.91;5067657;28;51963;-56
2022/09/18 08:27:04;;;;;;;;;17.00;13.50;;;;;34.35;100.00;101478.81;5074381;28;51543;-54
2022/09/18 08:29:49;;;;;;;;;12.50;12.00;;;;;34.31;100.00;101504.97;5079461;27;51132;-56
2022/09/18 08:32:33;;;;;;;;;11.25;9.00;;;;;34.32;100.00;101503.94;5083582;27;51172;-54
2022/09/18 08:35:18;;;;;;;;;13.75;8.25;;;;;34.36;100.00;101512.81;5083352;27;51052;-54
2022/09/18 08:38:02;;;;;;;;;11.75;11.25;;;;;34.45;100.00;101510.13;5076431;27;51612;-57
2022/09/18 08:40:56;;;;;;;;;14.50;11.25;;;;;34.42;100.00;101513.16;5072392;27;51175;-58
2022/09/18 08:43:48;;;;;;;;;11.50;11.00;;;;;34.25;100.00;101514.69;5081477;27;51430;-57
2022/09/18 08:46:38;;;;;;;;;13.50;8.75;;;;;34.13;100.00;101510.31;5082737;27;51338;-57
2022/09/18 08:50:02;;;;;;;;;9.00;8.50;;;;;33.96;100.00;101509.13;5074726;27;51234;-57
2022/09/18 08:53:06;;;;;;;;;11.00;7.00;;;;;33.71;100.00;101507.66;5081282;27;51196;-56
2022/09/18 08:55:52;;;;;;;;;8.50;8.00;;;;;33.62;100.00;101509.38;5063936;27;51137;-57
2022/09/18 08:58:49;;;;;;;;;13.50;10.50;;;;;33.48;100.00;101513.41;5080040;27;51126;-56
2022/09/18 09:01:46;;;;;;;;;15.00;12.00;;;;;33.55;100.00;101502.69;5082228;27;51155;-57
2022/09/18 09:04:31;;;;;;;;;13.00;10.50;;;;;33.83;100.00;101515.72;5079710;27;51379;-55
2022/09/18 09:07:25;;;;;;;;;11.25;8.00;;;;;34.07;100.00;101503.50;5077625;27;51206;-56
2022/09/18 09:10:16;;;;;;;;;10.50;8.75;;;;;34.12;100.00;101492.00;5076732;27;51130;-58
2022/09/18 09:13:35;;;;;;;;;10.75;7.50;;;;;34.04;100.00;101483.53;5080877;27;51586;-57
2022/09/18 09:16:25;;;;;;;;;11.00;8.50;;;;;34.01;100.00;101487.47;5073421;27;51085;-58
2022/09/18 09:19:30;;;;;;;;;8.75;8.75;;;;;34.08;100.00;101496.91;5081355;27;51459;-57
2022/09/18 09:22:18;;;;;;;;;12.50;11.00;;;;;34.01;100.00;101483.84;5077083;27;51248;-57
2022/09/18 09:25:32;;;;;;;;;12.25;8.25;;;;;33.90;100.00;101504.16;5062567;27;51250;-57
2022/09/18 09:28:33;;;;;;;;;11.25;8.25;;;;;33.95;100.00;101490.81;5059362;27;51224;-56
2022/09/18 09:31:25;;;;;;;;;12.75;10.00;;;;;33.96;100.00;101490.66;5050106;27;51568;-57
2022/09/18 09:34:20;;;;;;;;;12.75;11.50;;;;;33.93;100.00;101492.84;5047727;27;51505;-57
2022/09/18 09:37:14;;;;;;;;;12.25;7.50;;;;;33.95;100.00;101491.66;5061021;27;51105;-57
2022/09/18 09:40:06;;;;;;;;;12.50;9.00;;;;;33.94;100.00;101480.78;5058502;27;51157;-58
2022/09/18 09:43:11;;;;;;;;;11.50;8.75;;;;;33.83;100.00;101481.72;5021412;28;51426;-58
2022/09/18 09:46:00;;;;;;;;;6.50;6.50;;;;;33.77;100.00;101483.16;5024280;28;51149;-57
2022/09/18 09:49:04;;;;;;;;;14.50;10.25;;;;;33.68;100.00;101470.19;5000121;28;51192;-58
2022/09/18 09:52:16;;;;;;;;;6.50;6.50;;;;;33.63;100.00;101470.63;5035708;28;51166;-57
2022/09/18 09:55:14;;;;;;;;;10.25;8.75;;;;;33.49;100.00;101465.50;5015883;28;51343;-57
2022/09/18 09:58:29;;;;;;;;;16.50;9.25;;;;;33.38;100.00;101471.97;5019848;28;51841;-57
2022/09/18 10:01:34;;;;;;;;;13.00;10.75;;;;;33.34;100.00;101476.00;5010382;28;51146;-57
2022/09/18 10:04:33;;;;;;;;;16.00;10.00;;;;;33.28;100.00;101468.25;5023978;28;51263;-57
2022/09/18 10:07:49;;;;;;;;;10.25;10.25;;;;;33.25;100.00;101465.75;5038815;28;52303;-58
2022/09/18 10:10:48;;;;;;;;;7.50;7.50;;;;;33.12;100.00;101458.59;5006890;28;52569;-57
2022/09/18 10:13:41;;;;;;;;;13.25;8.50;;;;;33.07;100.00;101458.13;5009603;28;51504;-58
2022/09/18 10:16:42;;;;;;;;;15.00;9.50;;;;;32.97;100.00;101446.16;5018092;28;51266;-58
2022/09/18 10:19:34;;;;;;;;;9.75;7.50;;;;;33.02;100.00;101461.28;5031562;28;51462;-58
2022/09/18 10:22:21;;;;;;;;;13.25;9.75;;;;;33.05;100.00;101455.50;5009253;28;51222;-57
2022/09/18 10:25:40;;;;;;;;;13.50;10.00;;;;;33.25;100.00;101466.63;5012970;28;51297;-57
2022/09/18 10:28:28;;;;;;;;;15.50;11.75;;;;;33.58;100.00;101450.84;5007414;28;51213;-57
2022/09/18 10:31:14;;;;;;;;;13.25;12.75;;;;;33.83;100.00;101445.84;5024108;28;51212;-57
2022/09/18 10:33:58;;;;;;;;;12.50;9.75;;;;;33.95;100.00;101438.34;5012129;28;51280;-57
2022/09/18 10:36:44;;;;;;;;;11.25;8.75;;;;;33.89;100.00;101436.16;5043136;28;51176;-57
2022/09/18 10:39:35;;;;;;;;;12.00;9.50;;;;;33.73;100.00;101423.75;5017865;28;51466;-57
2022/09/18 10:42:25;;;;;;;;;14.00;9.00;;;;;33.56;100.00;101433.56;5020077;27;51197;-58
2022/09/18 10:45:35;;;;;;;;;9.25;8.00;;;;;33.44;100.00;101420.88;5043607;27;51161;-57
2022/09/18 10:48:24;;;;;;;;;11.50;9.50;;;;;33.36;100.00;101436.25;5050656;27;52016;-56
2022/09/18 10:51:16;;;;;;;;;10.25;9.50;;;;;33.31;100.00;101433.00;5053620;27;51454;-57
2022/09/18 10:54:18;;;;;;;;;11.25;7.75;;;;;33.29;100.00;101431.38;5034229;28;51222;-57
2022/09/18 10:57:33;;;;;;;;;13.50;8.25;;;;;33.43;100.00;101435.69;5047199;27;52370;-57
2022/09/18 11:00:24;;;;;;;;;11.25;7.50;;;;;33.49;100.00;101432.38;5042103;27;51101;-58
2022/09/18 11:03:24;;;;;;;;;15.75;11.50;;;;;33.52;100.00;101421.94;5040631;27;51240;-57
2022/09/18 11:06:22;;;;;;;;;12.75;11.00;;;;;33.59;100.00;101418.59;5054931;27;51577;-57
2022/09/18 11:09:09;;;;;;;;;12.50;9.00;;;;;33.65;100.00;101410.66;5052830;27;51645;-57
2022/09/18 11:11:53;;;;;;;;;9.75;9.25;;;;;33.70;100.00;101412.13;5024228;27;51244;-57
2022/09/18 11:14:40;;;;;;;;;12.00;9.50;;;;;33.82;100.00;101410.97;5065451;27;51208;-56
2022/09/18 11:17:39;;;;;;;;;9.75;8.25;;;;;33.88;100.00;101404.94;5049949;27;51497;-57
2022/09/18 11:20:45;;;;;;;;;16.00;8.75;;;;;33.84;100.00;101407.06;5042172;27;51493;-56
2022/09/18 11:23:32;;;;;;;;;9.50;6.25;;;;;33.83;100.00;101396.16;5032477;28;51176;-57
2022/09/18 11:26:20;;;;;;;;;15.25;10.50;;;;;33.82;100.00;101392.53;5047245;27;51493;-57
2022/09/18 11:29:26;;;;;;;;;15.50;10.75;;;;;33.93;100.00;101386.03;5071880;27;51159;-60
2022/09/18 11:32:24;;;;;;;;;15.25;7.50;;;;;33.91;100.00;101389.97;5046574;27;51091;-60
2022/09/18 11:35:14;;;;;;;;;12.00;9.50;;;;;33.71;100.00;101378.84;5064223;27;51189;-60
2022/09/18 11:38:06;;;;;;;;;16.00;11.00;;;;;33.63;100.00;101371.28;5078209;27;51174;-61
2022/09/18 11:40:53;;;;;;;;;12.00;11.75;;;;;33.66;100.00;101370.13;5064301;27;51204;-60
2022/09/18 11:43:39;;;;;;;;;12.75;6.25;;;;;33.67;100.00;101371.88;5079644;27;51077;-61
2022/09/18 11:46:50;;;;;;;;;8.50;8.50;;;;;33.79;100.00;101365.22;5078844;28;51316;-60
2022/09/18 11:50:08;;;;;;;;;10.00;7.50;;;;;33.89;100.00;101347.81;5064014;28;51274;-61
2022/09/18 11:52:54;;;;;;;;;13.00;9.50;;;;;34.11;100.00;101343.91;5064728;28;51036;-60
2022/09/18 11:56:01;;;;;;;;;11.25;10.25;;;;;33.91;100.00;101340.28;5063554;28;51024;-60
2022/09/18 11:59:12;;;;;;;;;14.00;9.50;;;;;33.63;100.00;101349.19;5080035;28;51409;-61
2022/09/18 12:02:20;;;;;;;;;12.25;9.50;;;;;33.32;100.00;101343.72;5079668;28;51143;-60
2022/09/18 12:05:18;;;;;;;;;9.75;8.00;;;;;33.05;100.00;101350.75;5083222;27;51233;-60
2022/09/18 12:08:17;;;;;;;;;13.75;11.00;;;;;32.92;100.00;101352.84;5050478;27;51231;-60
2022/09/18 12:11:39;;;;;;;;;9.50;8.25;;;;;32.80;100.00;101342.91;5068419;27;51371;-61
2022/09/18 12:14:49;;;;;;;;;13.00;12.00;;;;;32.82;100.00;101336.25;5083523;27;51188;-60
2022/09/18 12:17:41;;;;;;;;;13.50;9.00;;;;;32.88;100.00;101321.94;5068414;27;51139;-61
2022/09/18 12:20:36;;;;;;;;;10.00;8.25;;;;;32.96;100.00;101321.25;5083257;27;51548;-60
2022/09/18 12:23:25;;;;;;;;;8.00;7.75;;;;;33.05;100.00;101312.16;5083441;27;51169;-60
2022/09/18 12:26:19;;;;;;;;;11.75;8.50;;;;;33.13;100.00;101313.34;5083404;27;51303;-60
2022/09/18 12:29:19;;;;;;;;;9.75;9.75;;;;;33.18;100.00;101313.78;5083543;27;51203;-60
2022/09/18 12:32:16;;;;;;;;;15.00;12.25;;;;;33.20;100.00;101309.88;5051475;27;52761;-60
2022/09/18 12:35:13;;;;;;;;;8.25;6.50;;;;;33.22;100.00;101299.59;5079139;27;51136;-61
2022/09/18 12:38:19;;;;;;;;;9.50;9.50;;;;;33.16;100.00;101294.63;5067873;27;51335;-60
2022/09/18 12:41:39;;;;;;;;;10.25;6.00;;;;;33.09;100.00;101290.69;5082814;27;51047;-60
2022/09/18 12:44:48;;;;;;;;;11.00;9.00;;;;;33.04;100.00;101301.25;5062306;27;51115;-61
2022/09/18 12:48:07;;;;;;;;;11.25;10.25;;;;;33.04;100.00;101287.47;5082721;27;51522;-61
2022/09/18 12:51:10;;;;;;;;;13.00;9.00;;;;;33.01;100.00;101273.97;5067720;27;51126;-61
2022/09/18 12:54:20;;;;;;;;;10.25;8.25;;;;;33.03;100.00;101266.41;5083021;27;51371;-61